Time;durP1;ratioP1;P1;durP2;ratioP2;P2;SDS_P1;SDS_P2;PMS_P1;PMS_P2;Temp;Humidity;BMP_temperature;BMP_pressure;BME280_temperature;BME280_humidity;BME280_pressure;Samples;Min_cycle;Max_cycle;Signal;HPM_P1;HPM_P2
2023/10/11 00:04:43;;;;;;;7.37;4.73;;;16.60;34.30;;;;;;10387767;28;20233;-77
2023/10/11 00:09:51;;;;;;;10.40;5.20;;;16.50;33.90;;;;;;10377502;28;20723;-77
2023/10/11 00:14:57;;;;;;;10.30;5.30;;;16.50;34.10;;;;;;10381323;28;20934;-77
2023/10/11 00:20:11;;;;;;;9.10;5.10;;;16.40;34.50;;;;;;10364207;28;20236;-76
2023/10/11 00:25:23;;;;;;;7.07;4.87;;;16.20;34.30;;;;;;10380200;28;20228;-76
2023/10/11 00:30:30;;;;;;;10.03;5.20;;;15.90;34.60;;;;;;10384208;28;20916;-77
2023/10/11 00:35:33;;;;;;;9.10;5.30;;;15.80;35.60;;;;;;10373841;28;20234;-77
2023/10/11 00:40:36;;;;;;;10.10;4.83;;;15.70;35.20;;;;;;10384713;28;20234;-76
2023/10/11 00:45:41;;;;;;;12.93;5.60;;;15.60;35.20;;;;;;10381397;28;20887;-77
2023/10/11 00:50:44;;;;;;;9.27;5.20;;;15.60;36.00;;;;;;10384750;28;20240;-75
2023/10/11 00:55:48;;;;;;;11.60;5.17;;;15.60;35.50;;;;;;10386082;28;20268;-75
2023/10/11 01:00:53;;;;;;;7.80;4.93;;;15.60;35.50;;;;;;10385884;28;20237;-77
2023/10/11 01:05:58;;;;;;;7.13;4.57;;;15.60;36.20;;;;;;10385679;28;20312;-77
2023/10/11 01:11:02;;;;;;;8.13;4.50;;;15.60;35.50;;;;;;10345186;28;20707;-77
2023/10/11 01:16:09;;;;;;;9.40;5.13;;;15.60;35.50;;;;;;10349649;28;20237;-77
2023/10/11 01:21:14;;;;;;;9.33;5.33;;;15.70;36.10;;;;;;10342592;28;20312;-77
2023/10/11 01:26:17;;;;;;;8.83;5.13;;;15.70;36.00;;;;;;10344374;28;20238;-77
2023/10/11 01:31:21;;;;;;;10.00;4.97;;;15.70;35.60;;;;;;10344003;28;20237;-77
2023/10/11 01:36:26;;;;;;;12.10;5.67;;;15.60;35.60;;;;;;10336806;28;20752;-78
2023/10/11 01:41:29;;;;;;;9.20;5.40;;;15.50;36.20;;;;;;10346763;28;20320;-78
2023/10/11 01:46:35;;;;;;;8.47;4.90;;;15.40;35.90;;;;;;10341690;28;20700;-77
2023/10/11 01:51:40;;;;;;;8.60;4.90;;;15.30;36.20;;;;;;10340599;28;21121;-78
2023/10/11 01:56:45;;;;;;;10.30;5.53;;;15.20;36.70;;;;;;10342939;28;20292;-77
2023/10/11 02:01:58;;;;;;;10.37;5.20;;;15.10;36.40;;;;;;10342932;28;20230;-77
2023/10/11 02:07:03;;;;;;;10.63;5.37;;;15.10;36.60;;;;;;10340899;28;20238;-77
2023/10/11 02:12:10;;;;;;;7.03;4.53;;;15.00;37.20;;;;;;10342968;28;20301;-77
2023/10/11 02:17:17;;;;;;;7.90;5.33;;;15.00;37.60;;;;;;10345737;28;20770;-78
2023/10/11 02:22:22;;;;;;;7.53;4.53;;;15.00;36.90;;;;;;10356782;28;20230;-77
2023/10/11 02:27:26;;;;;;;6.00;4.53;;;15.00;37.20;;;;;;10348875;28;20416;-78
2023/10/11 02:32:38;;;;;;;8.13;5.00;;;15.00;36.80;;;;;;10351237;28;20247;-78
2023/10/11 02:37:45;;;;;;;6.77;4.53;;;15.00;36.80;;;;;;10371979;28;20826;-77
2023/10/11 02:42:49;;;;;;;7.03;4.70;;;15.10;37.20;;;;;;10385436;28;20233;-77
2023/10/11 02:47:59;;;;;;;6.00;3.97;;;15.10;36.60;;;;;;10385304;28;20237;-78
2023/10/11 02:53:12;;;;;;;10.67;4.80;;;15.10;36.60;;;;;;10348195;28;21060;-77
2023/10/11 02:58:21;;;;;;;5.70;3.80;;;15.10;37.20;;;;;;10341766;28;20830;-77
2023/10/11 03:03:26;;;;;;;6.37;4.67;;;15.10;36.50;;;;;;10381460;28;20313;-75
2023/10/11 03:08:34;;;;;;;7.33;4.97;;;15.00;36.60;;;;;;10380811;28;20226;-75
2023/10/11 03:13:41;;;;;;;8.00;4.30;;;15.00;37.70;;;;;;10356415;28;20834;-75
2023/10/11 03:18:46;;;;;;;11.30;4.90;;;14.90;36.80;;;;;;10348911;28;20245;-75
2023/10/11 03:23:54;;;;;;;8.83;4.80;;;14.90;36.90;;;;;;10352901;28;20241;-74
2023/10/11 03:29:03;;;;;;;5.97;4.57;;;14.80;37.50;;;;;;10381809;28;20226;-75
2023/10/11 03:34:11;;;;;;;6.03;4.03;;;14.70;37.10;;;;;;10381609;28;20224;-75
2023/10/11 03:39:26;;;;;;;7.10;3.90;;;14.60;37.20;;;;;;10383943;28;20716;-76
2023/10/11 03:44:35;;;;;;;8.37;4.90;;;14.50;37.70;;;;;;10393228;28;20225;-76
2023/10/11 03:49:50;;;;;;;10.17;5.03;;;14.50;37.60;;;;;;10389071;28;20756;-76
2023/10/11 03:55:01;;;;;;;7.73;4.37;;;14.50;37.60;;;;;;10388679;28;20399;-76
2023/10/11 04:00:16;;;;;;;14.00;8.53;;;14.50;38.10;;;;;;10361573;28;20696;-76
2023/10/11 04:05:22;;;;;;;11.87;7.40;;;14.50;38.10;;;;;;10357923;28;21079;-77
2023/10/11 04:10:38;;;;;;;12.50;6.20;;;14.40;37.90;;;;;;10369839;28;20233;-78
2023/10/11 04:15:42;;;;;;;9.93;6.07;;;14.40;38.80;;;;;;10354066;28;20253;-77
2023/10/11 04:20:51;;;;;;;9.37;6.00;;;14.40;38.40;;;;;;10362152;28;20805;-77
2023/10/11 04:25:56;;;;;;;9.03;5.63;;;14.40;38.70;;;;;;10359547;28;20262;-78
2023/10/11 04:31:28;;;;;;;8.97;5.40;;;14.40;39.10;;;;;;10348138;28;21032;-78
2023/10/11 04:36:31;;;;;;;8.23;4.70;;;14.40;38.60;;;;;;10357105;28;20218;-75
2023/10/11 04:41:38;;;;;;;7.10;4.63;;;14.50;38.50;;;;;;10388388;28;20760;-75
2023/10/11 04:46:44;;;;;;;8.83;4.97;;;14.60;38.80;;;;;;10388898;28;20898;-78
2023/10/11 04:51:48;;;;;;;7.73;4.50;;;14.60;38.30;;;;;;10367473;28;20309;-78
2023/10/11 04:56:56;;;;;;;7.07;4.83;;;14.60;38.20;;;;;;10339388;28;20226;-78
2023/10/11 05:02:03;;;;;;;7.93;4.97;;;14.70;38.60;;;;;;10338345;28;20234;-77
2023/10/11 05:07:09;;;;;;;7.33;4.63;;;14.70;38.20;;;;;;10344355;28;20227;-77
2023/10/11 05:12:19;;;;;;;8.20;5.33;;;14.70;38.90;;;;;;10339370;28;20241;-77
2023/10/11 05:17:38;;;;;;;6.03;4.63;;;14.70;38.70;;;;;;10350255;28;20240;-77
2023/10/11 05:22:49;;;;;;;10.20;5.90;;;14.60;38.30;;;;;;10346757;28;20227;-76
2023/10/11 05:27:57;;;;;;;8.53;5.97;;;14.60;38.40;;;;;;10354343;28;20230;-76
2023/10/11 05:33:15;;;;;;;9.93;5.90;;;14.50;38.90;;;;;;10346513;28;20269;-76
2023/10/11 05:54:34;;;;;;;7.53;4.37;;;14.40;39.20;;;;;;10391689;28;20225;-76
2023/10/11 05:59:39;;;;;;;11.17;4.90;;;14.40;39.00;;;;;;10391147;28;20305;-76
2023/10/11 06:04:45;;;;;;;7.27;5.47;;;14.50;39.80;;;;;;10387655;28;20232;-76
2023/10/11 06:09:52;;;;;;;11.17;5.80;;;14.50;39.70;;;;;;10377929;28;20313;-77
2023/10/11 06:15:03;;;;;;;8.93;5.77;;;14.50;39.70;;;;;;10378791;28;20296;-76
2023/10/11 06:20:23;;;;;;;10.73;5.63;;;14.40;40.40;;;;;;10346187;28;20217;-76
2023/10/11 06:30:46;;;;;;;8.97;4.90;;;14.40;40.00;;;;;;10346154;28;20233;-76
2023/10/11 06:35:50;;;;;;;7.60;4.97;;;14.50;40.90;;;;;;10341774;28;20641;-76
2023/10/11 06:41:36;;;;;;;7.83;4.73;;;14.50;40.40;;;;;;10354430;28;20227;-76
2023/10/11 06:46:19;;;;;;;7.83;4.90;;;14.50;40.40;;;;;;10378878;28;20217;-76
2023/10/11 06:51:22;;;;;;;9.27;4.93;;;14.50;41.10;;;;;;10393869;28;20234;-76
2023/10/11 06:56:27;;;;;;;6.20;4.80;;;14.60;40.60;;;;;;10397854;28;20275;-77
2023/10/11 07:01:35;;;;;;;7.13;4.57;;;14.60;40.70;;;;;;10394999;28;20249;-77
2023/10/11 07:06:42;;;;;;;11.53;5.50;;;14.70;41.40;;;;;;10393762;28;20230;-77
2023/10/11 07:11:50;;;;;;;7.30;4.93;;;14.90;41.20;;;;;;10391991;28;20229;-77
2023/10/11 07:16:55;;;;;;;8.37;4.60;;;15.00;41.20;;;;;;10370377;28;20222;-77
2023/10/11 07:22:02;;;;;;;8.90;5.10;;;15.00;41.60;;;;;;10347646;28;20225;-77
2023/10/11 07:27:09;;;;;;;10.20;5.17;;;15.10;41.50;;;;;;10373287;28;20809;-77
2023/10/11 07:32:14;;;;;;;10.97;5.17;;;15.30;41.90;;;;;;10373599;28;20241;-77
2023/10/11 07:37:26;;;;;;;9.80;5.23;;;15.40;42.80;;;;;;10358007;28;20227;-77
2023/10/11 07:42:36;;;;;;;10.60;5.13;;;15.60;42.60;;;;;;10349181;28;20254;-77
2023/10/11 07:47:45;;;;;;;10.13;5.17;;;15.90;43.00;;;;;;10358838;28;20317;-77
2023/10/11 07:52:49;;;;;;;13.03;4.43;;;16.10;43.60;;;;;;10356194;28;20605;-77
2023/10/11 07:57:59;;;;;;;9.93;4.20;;;16.50;43.20;;;;;;10353428;28;20320;-77
2023/10/11 08:03:05;;;;;;;10.07;4.53;;;16.80;43.20;;;;;;10370137;28;20851;-77
2023/10/11 08:08:13;;;;;;;7.07;3.90;;;17.20;43.50;;;;;;10391231;28;20221;-77
2023/10/11 08:13:23;;;;;;;5.60;3.70;;;17.50;43.00;;;;;;10370448;28;20226;-77
2023/10/11 08:18:32;;;;;;;6.90;4.00;;;17.90;42.90;;;;;;10355634;28;20309;-77
2023/10/11 08:23:36;;;;;;;7.90;3.90;;;18.30;43.00;;;;;;10369048;28;20235;-77
2023/10/11 08:28:47;;;;;;;7.40;3.87;;;18.70;42.50;;;;;;10351065;28;20222;-78
2023/10/11 08:33:53;;;;;;;8.27;4.00;;;19.00;42.20;;;;;;10371650;28;20251;-77
2023/10/11 08:38:59;;;;;;;5.47;3.50;;;19.30;42.20;;;;;;10382291;28;20234;-77
2023/10/11 08:44:08;;;;;;;7.10;3.97;;;19.70;41.60;;;;;;10358560;28;20218;-76
2023/10/11 08:49:14;;;;;;;9.40;3.90;;;20.00;41.10;;;;;;10346664;28;20992;-77
2023/10/11 08:54:25;;;;;;;5.67;3.53;;;20.30;40.70;;;;;;10363614;28;20226;-77
2023/10/11 08:59:32;;;;;;;8.53;3.67;;;20.60;40.70;;;;;;10388121;28;21029;-77
2023/10/11 09:04:56;;;;;;;6.63;3.90;;;20.80;40.60;;;;;;10394058;28;20225;-77
2023/10/11 09:10:00;;;;;;;11.97;3.73;;;21.10;39.70;;;;;;10392782;28;20240;-78
2023/10/11 09:15:05;;;;;;;6.70;3.87;;;21.40;39.80;;;;;;10385318;28;20756;-77
2023/10/11 09:20:15;;;;;;;9.03;3.73;;;21.60;39.30;;;;;;10393528;28;20233;-76
2023/10/11 09:25:22;;;;;;;7.47;3.47;;;21.90;38.30;;;;;;10391945;28;20275;-74
2023/10/11 09:30:27;;;;;;;7.73;4.10;;;22.10;38.90;;;;;;10386850;28;20720;-74
2023/10/11 09:35:32;;;;;;;8.27;3.40;;;22.40;38.60;;;;;;10388907;28;20228;-74
2023/10/11 09:40:36;;;;;;;7.23;3.60;;;22.60;38.80;;;;;;10391603;28;20232;-74
2023/10/11 09:45:42;;;;;;;6.87;3.67;;;22.90;39.10;;;;;;10388167;28;20809;-77
2023/10/11 09:50:49;;;;;;;7.97;3.40;;;23.10;38.90;;;;;;10387260;28;20319;-74
2023/10/11 09:56:02;;;;;;;5.13;3.40;;;23.50;37.40;;;;;;10388955;28;20345;-76
2023/10/11 10:01:12;;;;;;;6.10;3.30;;;23.70;36.40;;;;;;10346788;28;20229;-76
2023/10/11 10:06:21;;;;;;;7.53;3.50;;;24.00;36.10;;;;;;10348101;28;20222;-76
2023/10/11 10:11:25;;;;;;;5.87;3.27;;;24.30;35.90;;;;;;10343353;28;20241;-74
2023/10/11 10:17:01;;;;;;;6.40;3.40;;;24.40;36.20;;;;;;10344329;28;20231;-74
2023/10/11 10:22:22;;;;;;;6.90;3.43;;;24.70;34.60;;;;;;10342414;28;20222;-75
2023/10/11 10:27:40;;;;;;;7.90;3.17;;;24.90;34.50;;;;;;10345258;28;20237;-74
2023/10/11 10:33:19;;;;;;;5.13;3.57;;;25.10;34.70;;;;;;10352124;28;20309;-74
2023/10/11 10:39:05;;;;;;;6.33;3.30;;;25.40;34.50;;;;;;10261048;28;20237;-74
2023/10/11 10:44:10;;;;;;;5.53;3.07;;;25.60;33.40;;;;;;10361553;28;20230;-74
2023/10/11 10:49:13;;;;;;;5.27;3.23;;;25.70;33.30;;;;;;10358688;28;20378;-74
2023/10/11 10:54:22;;;;;;;7.47;3.17;;;25.90;33.70;;;;;;10362065;28;20952;-76
2023/10/11 10:59:26;;;;;;;5.40;3.20;;;26.10;32.20;;;;;;10370851;28;20233;-76
2023/10/11 11:04:32;;;;;;;5.93;3.23;;;26.30;32.30;;;;;;10392286;28;20226;-76
2023/10/11 11:09:37;;;;;;;6.93;3.33;;;26.30;32.60;;;;;;10400548;28;20324;-76
2023/10/11 11:14:54;;;;;;;8.20;3.57;;;26.50;31.40;;;;;;10397160;28;20229;-77
2023/10/11 11:20:14;;;;;;;6.60;3.03;;;26.70;30.30;;;;;;10389045;28;20229;-77
2023/10/11 11:25:27;;;;;;;7.43;2.90;;;26.80;30.60;;;;;;10371856;28;20734;-77
2023/10/11 11:30:34;;;;;;;9.83;3.30;;;26.90;29.90;;;;;;10357662;28;20617;-77
2023/10/11 11:35:52;;;;;;;9.23;3.40;;;27.00;30.80;;;;;;10353397;28;20585;-77
2023/10/11 11:41:05;;;;;;;6.27;3.20;;;27.00;28.30;;;;;;10349686;28;21284;-78
2023/10/11 11:46:29;;;;;;;5.20;3.30;;;27.00;29.20;;;;;;10382660;28;20258;-77
2023/10/11 11:51:32;;;;;;;7.10;3.27;;;27.00;29.70;;;;;;10394884;28;20230;-78
2023/10/11 11:56:37;;;;;;;8.90;3.30;;;27.10;29.80;;;;;;10386642;28;20224;-78
2023/10/11 12:01:40;;;;;;;5.97;3.17;;;27.10;28.90;;;;;;10350772;28;20934;-77
2023/10/11 12:06:44;;;;;;;5.80;3.10;;;27.10;29.10;;;;;;10377104;28;20225;-75
2023/10/11 12:11:51;;;;;;;7.83;3.13;;;27.10;29.70;;;;;;10381562;28;20234;-75
2023/10/11 12:16:55;;;;;;;8.30;3.50;;;27.20;29.00;;;;;;10390463;28;20590;-77
2023/10/11 12:21:59;;;;;;;6.73;3.40;;;27.30;29.20;;;;;;10357473;28;20238;-78
2023/10/11 12:27:04;;;;;;;6.90;3.10;;;27.30;29.10;;;;;;10343279;28;20502;-77
2023/10/11 12:32:07;;;;;;;6.77;3.67;;;27.40;29.00;;;;;;10338291;28;20788;-74
2023/10/11 12:37:14;;;;;;;6.77;3.17;;;27.50;28.50;;;;;;10344281;28;20876;-74
2023/10/11 12:42:19;;;;;;;8.07;3.40;;;27.60;28.20;;;;;;10341344;28;20210;-74
2023/10/11 12:47:22;;;;;;;6.53;3.40;;;27.60;27.60;;;;;;10357525;28;20238;-74
2023/10/11 12:52:30;;;;;;;7.50;3.50;;;27.70;27.80;;;;;;10346201;28;20242;-74
2023/10/11 12:57:38;;;;;;;6.67;3.07;;;27.70;27.70;;;;;;10347452;28;20230;-74
2023/10/11 13:02:48;;;;;;;9.57;3.50;;;27.70;27.10;;;;;;10341076;28;20229;-75
2023/10/11 13:07:51;;;;;;;5.13;3.37;;;27.80;27.20;;;;;;10334742;28;20285;-74
2023/10/11 13:12:56;;;;;;;4.90;3.07;;;27.70;27.10;;;;;;10345047;28;20260;-74
2023/10/11 13:18:09;;;;;;;6.17;3.10;;;27.70;26.70;;;;;;10351562;28;20225;-75
2023/10/11 13:23:13;;;;;;;5.50;3.27;;;27.80;27.00;;;;;;10337305;28;20786;-75
2023/10/11 13:28:18;;;;;;;4.60;3.30;;;27.80;26.70;;;;;;10360936;28;20230;-74
2023/10/11 13:33:21;;;;;;;9.13;3.40;;;27.80;25.90;;;;;;10340607;28;20229;-73
2023/10/11 13:38:24;;;;;;;7.17;3.30;;;27.80;26.40;;;;;;10343691;28;20285;-76
2023/10/11 13:43:29;;;;;;;7.03;3.60;;;27.80;26.50;;;;;;10325471;28;20605;-76
2023/10/11 13:48:37;;;;;;;5.07;3.03;;;27.80;25.90;;;;;;10326346;28;20235;-72
2023/10/11 13:53:42;;;;;;;8.50;3.40;;;27.80;26.20;;;;;;10324545;28;20234;-75
2023/10/11 13:58:46;;;;;;;9.03;3.03;;;27.80;26.20;;;;;;10332813;28;20788;-75
2023/10/11 14:03:55;;;;;;;5.93;3.07;;;27.80;25.60;;;;;;10331761;28;20226;-75
2023/10/11 14:09:14;;;;;;;6.93;3.20;;;27.90;25.90;;;;;;10334402;28;20230;-76
2023/10/11 14:14:22;;;;;;;6.83;3.30;;;27.90;25.90;;;;;;10348177;28;20257;-75
2023/10/11 14:19:26;;;;;;;7.77;3.13;;;27.90;24.90;;;;;;10339560;28;20720;-75
2023/10/11 14:24:30;;;;;;;5.23;3.10;;;27.90;25.60;;;;;;10347598;28;20232;-76
2023/10/11 14:29:37;;;;;;;6.57;3.27;;;27.90;25.40;;;;;;10333714;28;20233;-78
2023/10/11 14:34:40;;;;;;;5.17;2.80;;;27.90;24.70;;;;;;10337783;28;20241;-79
2023/10/11 14:39:47;;;;;;;5.43;3.00;;;27.90;25.20;;;;;;10378441;28;20229;-78
2023/10/11 14:44:52;;;;;;;7.27;3.30;;;27.90;25.10;;;;;;10379651;28;20329;-78
2023/10/11 14:49:55;;;;;;;8.90;3.00;;;27.90;24.40;;;;;;10375431;28;20228;-78
2023/10/11 14:54:59;;;;;;;8.97;3.17;;;27.90;25.30;;;;;;10373902;28;20233;-78
2023/10/11 15:00:06;;;;;;;8.47;3.50;;;27.80;24.70;;;;;;10346138;28;20230;-74
2023/10/11 15:05:09;;;;;;;6.33;3.20;;;27.80;24.40;;;;;;10339223;28;20225;-74
2023/10/11 15:10:13;;;;;;;5.33;3.37;;;27.80;24.90;;;;;;10367514;28;20226;-74
2023/10/11 15:15:19;;;;;;;4.93;3.20;;;27.80;24.80;;;;;;10389995;28;20229;-74
2023/10/11 15:20:22;;;;;;;4.37;3.07;;;27.70;24.40;;;;;;10381814;28;20238;-74
2023/10/11 15:25:26;;;;;;;4.77;2.83;;;27.70;24.60;;;;;;10375490;28;20233;-75
2023/10/11 15:30:31;;;;;;;7.87;3.50;;;27.70;24.70;;;;;;10356974;28;20236;-74
2023/10/11 15:35:34;;;;;;;8.03;3.20;;;27.60;24.50;;;;;;10345691;28;20272;-74
2023/10/11 15:40:38;;;;;;;7.27;3.37;;;27.60;24.70;;;;;;10379566;28;20320;-76
2023/10/11 15:45:52;;;;;;;6.57;3.33;;;27.50;25.00;;;;;;10384857;28;20257;-75
2023/10/11 15:51:05;;;;;;;5.87;3.37;;;27.40;24.90;;;;;;10381331;28;20238;-74
2023/10/11 15:56:13;;;;;;;6.47;3.40;;;27.40;25.00;;;;;;10338776;28;20321;-74
2023/10/11 16:01:18;;;;;;;4.30;3.10;;;27.30;24.90;;;;;;10349891;28;20349;-74
2023/10/11 16:06:24;;;;;;;8.97;3.67;;;27.20;25.20;;;;;;10347826;28;20226;-74
2023/10/11 16:11:30;;;;;;;8.20;3.40;;;27.10;25.40;;;;;;10353876;28;20608;-73
2023/10/11 16:16:36;;;;;;;6.63;3.60;;;27.00;25.50;;;;;;10355824;28;20287;-74
2023/10/11 16:21:41;;;;;;;7.23;3.33;;;26.80;25.30;;;;;;10349168;28;20222;-74
2023/10/11 16:26:44;;;;;;;4.23;3.20;;;26.70;25.60;;;;;;10346876;28;20298;-73
2023/10/11 16:31:49;;;;;;;5.27;3.37;;;26.50;26.00;;;;;;10345553;28;20257;-74
2023/10/11 16:36:52;;;;;;;6.67;3.43;;;26.40;26.10;;;;;;10352642;28;20226;-74
2023/10/11 16:41:57;;;;;;;7.83;3.80;;;26.30;26.10;;;;;;10362444;28;20218;-74
2023/10/11 16:47:08;;;;;;;4.50;3.63;;;26.10;26.10;;;;;;10344802;28;20230;-74
2023/10/11 16:52:12;;;;;;;5.43;3.77;;;26.00;26.20;;;;;;10381512;28;20692;-74
2023/10/11 16:57:19;;;;;;;6.57;4.80;;;25.70;26.30;;;;;;10369939;28;20308;-74
2023/10/11 17:02:26;;;;;;;9.97;5.33;;;25.60;26.40;;;;;;10368801;28;20904;-78
2023/10/11 17:07:31;;;;;;;8.07;4.90;;;25.40;26.60;;;;;;10366903;28;20234;-75
2023/10/11 17:12:35;;;;;;;9.20;4.97;;;25.20;26.60;;;;;;10367846;28;20234;-74
2023/10/11 17:17:40;;;;;;;5.03;4.47;;;24.90;26.60;;;;;;10340343;28;20238;-74
2023/10/11 17:22:45;;;;;;;6.70;4.87;;;24.70;26.90;;;;;;10366968;28;20234;-73
2023/10/11 17:27:50;;;;;;;5.53;4.50;;;24.50;26.80;;;;;;10384490;28;20237;-78
2023/10/11 17:32:54;;;;;;;6.73;4.20;;;24.20;27.10;;;;;;10355588;28;20242;-75
2023/10/11 17:37:58;;;;;;;7.07;4.00;;;23.90;27.40;;;;;;10340867;28;20239;-75
2023/10/11 17:43:01;;;;;;;7.47;3.73;;;23.70;27.60;;;;;;10359320;28;20597;-78
2023/10/11 17:48:07;;;;;;;8.93;3.80;;;23.50;27.70;;;;;;10381728;28;20272;-76
2023/10/11 17:53:11;;;;;;;7.47;4.70;;;23.30;27.50;;;;;;10362552;28;20288;-76
2023/10/11 17:58:14;;;;;;;6.90;4.33;;;23.20;27.50;;;;;;10362310;28;20238;-76
2023/10/11 18:03:19;;;;;;;6.10;4.33;;;23.10;27.60;;;;;;10346598;28;21358;-76
2023/10/11 18:08:22;;;;;;;4.70;3.90;;;23.00;27.90;;;;;;10358124;28;20724;-76
2023/10/11 18:13:26;;;;;;;8.80;4.43;;;22.90;27.70;;;;;;10360990;28;20660;-78
2023/10/11 18:18:33;;;;;;;7.70;4.43;;;22.60;27.90;;;;;;10391555;28;20299;-78
2023/10/11 18:23:37;;;;;;;4.60;3.87;;;22.30;28.30;;;;;;10385678;28;21675;-78
2023/10/11 18:28:41;;;;;;;6.30;4.13;;;22.10;28.30;;;;;;10389610;28;20229;-77
2023/10/11 18:33:45;;;;;;;7.37;4.07;;;22.00;28.60;;;;;;10383407;28;20320;-78
2023/10/11 18:38:50;;;;;;;6.33;4.47;;;21.70;28.70;;;;;;10380809;28;20288;-77
2023/10/11 18:43:53;;;;;;;7.57;4.23;;;21.90;28.80;;;;;;10386038;28;20233;-75
2023/10/11 18:48:58;;;;;;;7.43;5.00;;;21.80;28.80;;;;;;10377924;28;20233;-76
2023/10/11 18:54:01;;;;;;;7.23;4.40;;;21.70;29.00;;;;;;10388009;28;20228;-76
2023/10/11 18:59:05;;;;;;;6.03;4.23;;;21.70;29.00;;;;;;10387641;28;20769;-75
2023/10/11 19:04:11;;;;;;;7.47;4.07;;;21.60;29.00;;;;;;10370276;28;20229;-78
2023/10/11 19:09:15;;;;;;;4.37;3.37;;;21.60;29.30;;;;;;10348664;28;20311;-76
2023/10/11 19:14:18;;;;;;;7.53;4.90;;;21.50;29.10;;;;;;10370712;28;20748;-78
2023/10/11 19:19:24;;;;;;;6.60;4.37;;;21.50;29.10;;;;;;10378442;28;20328;-76
2023/10/11 19:24:27;;;;;;;7.87;4.63;;;21.40;29.30;;;;;;10383546;28;20241;-76
2023/10/11 19:29:30;;;;;;;7.00;4.50;;;21.30;29.10;;;;;;10374706;28;20237;-75
2023/10/11 19:34:35;;;;;;;6.50;4.60;;;21.20;29.10;;;;;;10383693;28;20232;-76
2023/10/11 19:39:38;;;;;;;7.47;3.90;;;21.10;29.30;;;;;;10370096;28;20222;-75
2023/10/11 19:44:41;;;;;;;6.93;4.37;;;21.00;29.20;;;;;;10389117;28;20229;-75
2023/10/11 19:49:46;;;;;;;10.03;4.70;;;20.90;29.30;;;;;;10392905;28;20600;-75
2023/10/11 19:54:55;;;;;;;9.77;4.60;;;20.80;29.40;;;;;;10394544;28;20233;-76
2023/10/11 19:59:59;;;;;;;6.73;3.93;;;20.70;29.70;;;;;;10392561;28;20230;-76
2023/10/11 20:05:06;;;;;;;9.00;4.67;;;20.60;29.40;;;;;;10370459;28;20226;-76
2023/10/11 20:10:13;;;;;;;9.23;4.63;;;20.50;29.70;;;;;;10354968;28;20230;-76
2023/10/11 20:15:18;;;;;;;6.43;4.37;;;20.40;29.70;;;;;;10379087;28;20729;-75
2023/10/11 20:20:24;;;;;;;5.87;4.03;;;20.30;29.70;;;;;;10364923;28;20265;-77
2023/10/11 20:25:28;;;;;;;8.93;4.03;;;20.30;30.00;;;;;;10393584;28;20218;-77
2023/10/11 20:30:32;;;;;;;7.97;4.30;;;20.20;29.70;;;;;;10387327;28;20227;-78
2023/10/11 20:35:38;;;;;;;7.33;4.13;;;20.20;29.80;;;;;;10382860;28;20233;-77
2023/10/11 20:40:43;;;;;;;6.17;4.20;;;20.20;30.10;;;;;;10396316;28;20313;-77
2023/10/11 20:45:46;;;;;;;8.40;4.60;;;20.10;30.00;;;;;;10394157;28;20237;-78
2023/10/11 20:50:52;;;;;;;8.93;4.23;;;20.00;29.90;;;;;;10395385;28;20632;-75
2023/10/11 20:55:58;;;;;;;5.03;4.17;;;19.90;30.00;;;;;;10353380;28;20235;-78
2023/10/11 21:01:07;;;;;;;6.90;4.43;;;19.80;30.00;;;;;;10348233;28;20254;-77
2023/10/11 21:06:14;;;;;;;7.00;3.67;;;19.80;30.60;;;;;;10347175;28;20223;-77
2023/10/11 21:11:18;;;;;;;6.27;3.63;;;19.70;30.40;;;;;;10350476;28;20261;-78
2023/10/11 21:16:22;;;;;;;8.87;4.77;;;19.60;30.10;;;;;;10351167;28;20230;-78
2023/10/11 21:21:28;;;;;;;5.13;4.30;;;19.60;30.20;;;;;;10344744;28;20234;-77
2023/10/11 21:26:33;;;;;;;7.23;4.37;;;19.50;30.60;;;;;;10340447;28;20280;-78
2023/10/11 21:31:37;;;;;;;8.90;4.40;;;19.40;30.50;;;;;;10353957;28;20230;-77
2023/10/11 21:36:41;;;;;;;6.93;4.70;;;19.30;30.40;;;;;;10333319;28;20226;-78
2023/10/11 21:41:45;;;;;;;4.50;3.80;;;19.30;30.90;;;;;;10348816;28;20237;-77
2023/10/11 21:46:48;;;;;;;6.80;4.10;;;19.20;30.60;;;;;;10336468;28;20252;-77
2023/10/11 21:51:53;;;;;;;6.30;4.27;;;19.20;30.70;;;;;;10355788;28;20234;-77
2023/10/11 21:56:56;;;;;;;6.13;4.10;;;19.10;31.00;;;;;;10357587;28;20333;-77
2023/10/11 22:01:59;;;;;;;8.80;4.40;;;19.10;30.80;;;;;;10355422;28;20866;-77
2023/10/11 22:07:07;;;;;;;5.53;3.93;;;19.00;30.90;;;;;;10342395;28;20823;-77
2023/10/11 22:12:13;;;;;;;6.67;4.70;;;18.90;31.00;;;;;;10354185;28;20225;-77
2023/10/11 22:17:18;;;;;;;7.93;4.40;;;18.90;31.00;;;;;;10345628;28;20241;-75
2023/10/11 22:22:23;;;;;;;6.27;4.60;;;18.70;31.00;;;;;;10351805;28;20230;-75
2023/10/11 22:27:32;;;;;;;6.23;4.80;;;18.70;31.50;;;;;;10346614;28;20624;-76
2023/10/11 22:32:35;;;;;;;6.40;4.30;;;18.70;31.50;;;;;;10354300;28;20288;-75
2023/10/11 22:37:40;;;;;;;7.23;3.83;;;18.60;31.40;;;;;;10379914;28;20243;-76
2023/10/11 22:42:44;;;;;;;7.40;4.93;;;18.50;31.70;;;;;;10392086;28;20230;-75
2023/10/11 22:47:47;;;;;;;6.37;4.30;;;18.50;31.60;;;;;;10380767;28;20229;-75
2023/10/11 22:52:52;;;;;;;6.03;4.50;;;18.40;31.60;;;;;;10377377;28;20242;-75
2023/10/11 22:57:55;;;;;;;6.93;4.70;;;18.30;32.00;;;;;;10367245;28;20221;-75
2023/10/11 23:03:00;;;;;;;7.77;4.33;;;18.30;31.80;;;;;;10380599;28;20243;-76
2023/10/11 23:08:06;;;;;;;7.87;5.00;;;18.30;31.90;;;;;;10378145;28;20333;-75
2023/10/11 23:13:09;;;;;;;6.67;4.27;;;18.20;32.30;;;;;;10366893;28;20225;-77
2023/10/11 23:18:15;;;;;;;5.43;4.10;;;18.10;32.00;;;;;;10339127;28;20222;-77
2023/10/11 23:23:29;;;;;;;7.57;4.50;;;18.00;32.10;;;;;;10347113;28;20230;-77
2023/10/11 23:28:35;;;;;;;5.63;4.30;;;18.00;32.40;;;;;;10345309;28;20315;-77
2023/10/11 23:33:48;;;;;;;7.33;4.17;;;17.90;32.30;;;;;;10350721;28;20774;-77
2023/10/11 23:39:04;;;;;;;5.70;4.37;;;17.80;32.30;;;;;;10352287;28;20316;-77
2023/10/11 23:49:30;;;;;;;6.60;4.60;;;17.70;32.30;;;;;;10349328;28;20233;-77
2023/10/11 23:54:48;;;;;;;6.00;4.47;;;17.60;32.60;;;;;;10362958;28;20284;-76
2023/10/11 23:59:58;;;;;;;6.27;4.23;;;17.60;33.00;;;;;;10356676;28;20237;-77
